createdAt,value
2018-06-28T00:00:16.551Z,99431.31
2018-06-28T00:02:45.878Z,99424.08
2018-06-28T00:05:15.134Z,99420.06
2018-06-28T00:07:45.209Z,99423.28
2018-06-28T00:10:14.428Z,99417.58
2018-06-28T00:12:43.641Z,99424.98
2018-06-28T00:15:12.872Z,99424.62
2018-06-28T00:17:42.197Z,99379.97
2018-06-28T00:20:12.457Z,99420.26
2018-06-28T00:22:41.675Z,99426.58
2018-06-28T00:25:10.887Z,99422.14
2018-06-28T00:27:39.975Z,99418.92
2018-06-28T00:30:09.137Z,99421.42
2018-06-28T00:32:38.960Z,99426.08
2018-06-28T00:35:08.077Z,99418.52
2018-06-28T00:37:37.202Z,99418.42
2018-06-28T00:40:06.585Z,99417.62
2018-06-28T00:42:35.695Z,99417.21
2018-06-28T00:45:04.825Z,99419.81
2018-06-28T00:47:33.955Z,99421.67
2018-06-28T00:50:03.131Z,99424.49
2018-06-28T00:52:32.235Z,99413.19
2018-06-28T00:55:01.569Z,99414.41
2018-06-28T00:57:30.855Z,99418.17
2018-06-28T01:00:00.537Z,99421.28
2018-06-28T01:02:29.775Z,99412.47
2018-06-28T01:04:58.965Z,99413.14
2018-06-28T01:07:28.687Z,99412.44
2018-06-28T01:09:57.846Z,99404.55
2018-06-28T01:12:27.646Z,99407.05
2018-06-28T01:14:56.754Z,99409.77
2018-06-28T01:17:26.194Z,99401.39
2018-06-28T01:19:55.253Z,99405.84
2018-06-28T01:22:24.463Z,99401.95
2018-06-28T01:24:53.580Z,99405.96
2018-06-28T01:27:22.663Z,99405.38
2018-06-28T01:29:51.768Z,99404.13
2018-06-28T01:32:20.964Z,99395.53
2018-06-28T01:34:50.134Z,99401.45
2018-06-28T01:37:19.329Z,99399.21
2018-06-28T01:39:48.461Z,99404.55
2018-06-28T01:43:40.290Z,99403.55
2018-06-28T01:46:09.403Z,99400.92
2018-06-28T01:48:38.508Z,99400.74
2018-06-28T01:51:07.682Z,99365.80
2018-06-28T01:53:36.777Z,99400.33
2018-06-28T01:56:05.900Z,99407.16
2018-06-28T01:58:35.120Z,99415.13
2018-06-28T02:01:04.687Z,99412.30
2018-06-28T02:03:33.956Z,99405.09
2018-06-28T02:06:03.097Z,99410.28
2018-06-28T02:08:32.317Z,99410.19
2018-06-28T02:11:01.582Z,99416.40
2018-06-28T02:13:30.847Z,99418.41
2018-06-28T02:15:59.979Z,99417.86
2018-06-28T02:18:29.071Z,99413.99
2018-06-28T02:20:58.173Z,99415.97
2018-06-28T02:23:27.418Z,99415.70
2018-06-28T02:25:56.550Z,99388.45
2018-06-28T02:28:25.627Z,99417.73
2018-06-28T02:30:54.789Z,99412.97
2018-06-28T02:33:24.208Z,99410.96
2018-06-28T02:35:53.326Z,99413.53
2018-06-28T02:38:22.455Z,99406.93
2018-06-28T02:40:51.537Z,99413.73
2018-06-28T02:43:20.751Z,99419.14
2018-06-28T02:45:49.927Z,99420.94
2018-06-28T02:48:19.109Z,99423.80
2018-06-28T02:50:48.375Z,99419.50
2018-06-28T02:53:17.743Z,99406.42
2018-06-28T02:55:46.922Z,99412.86
2018-06-28T02:58:15.998Z,99413.92
2018-06-28T03:00:45.115Z,99410.42
2018-06-28T03:03:14.287Z,99407.36
2018-06-28T03:05:43.451Z,99405.73
2018-06-28T03:08:12.692Z,99405.80
2018-06-28T03:10:41.920Z,99401.20
2018-06-28T03:13:11.827Z,99402.08
2018-06-28T03:15:40.927Z,99406.53
2018-06-28T03:18:10.140Z,99407.81
2018-06-28T03:20:39.236Z,99407.30
2018-06-28T03:23:08.385Z,99404.40
2018-06-28T03:25:37.505Z,99407.81
2018-06-28T03:28:06.600Z,99406.09
2018-06-28T03:30:35.778Z,99403.09
2018-06-28T03:33:04.960Z,99413.55
2018-06-28T03:35:34.091Z,99408.08
2018-06-28T03:38:03.296Z,99408.08
2018-06-28T03:40:32.428Z,99408.63
2018-06-28T03:43:01.576Z,99412.91
2018-06-28T03:45:30.645Z,99419.06
2018-06-28T03:47:59.785Z,99419.86
2018-06-28T03:50:28.934Z,99419.92
2018-06-28T03:52:58.051Z,99415.86
2018-06-28T03:55:28.254Z,99420.42
2018-06-28T03:57:58.262Z,99413.30
2018-06-28T04:00:27.463Z,99411.66
2018-06-28T04:02:56.930Z,99417.30
2018-06-28T04:05:26.181Z,99409.97
2018-06-28T04:07:55.277Z,99406.47
2018-06-28T04:10:24.402Z,99406.73
2018-06-28T04:12:53.653Z,99401.69
2018-06-28T04:15:22.823Z,99406.62
2018-06-28T04:17:51.949Z,99404.67
2018-06-28T04:20:21.153Z,99409.23
2018-06-28T04:22:50.454Z,99417.20
2018-06-28T04:25:19.670Z,99419.02
2018-06-28T04:27:48.846Z,99412.34
2018-06-28T04:30:18.191Z,99414.45
2018-06-28T04:32:47.437Z,99420.98
2018-06-28T04:35:16.611Z,99407.84
2018-06-28T04:37:45.737Z,99412.05
2018-06-28T04:40:14.934Z,99412.25
2018-06-28T04:42:44.054Z,99414.71
2018-06-28T04:45:13.222Z,99415.48
2018-06-28T04:47:42.269Z,99412.76
2018-06-28T04:50:11.452Z,99407.84
2018-06-28T04:52:40.617Z,99412.98
2018-06-28T04:55:09.859Z,99417.16
2018-06-28T04:57:39.071Z,99421.67
2018-06-28T05:00:08.195Z,99416.61
2018-06-28T05:02:37.349Z,99414.30
2018-06-28T05:05:06.489Z,99413.23
2018-06-28T05:07:35.618Z,99409.23
2018-06-28T05:10:04.847Z,99405.55
2018-06-28T05:12:34.802Z,99400.63
2018-06-28T05:15:03.942Z,99398.78
2018-06-28T05:17:33.018Z,99410.03
2018-06-28T05:20:02.218Z,99413.36
2018-06-28T05:22:31.290Z,99414.19
2018-06-28T05:25:00.382Z,99412.94
2018-06-28T05:27:30.023Z,99412.88
2018-06-28T05:29:59.782Z,99414.02
2018-06-28T05:32:29.025Z,99417.53
2018-06-28T05:34:58.145Z,99413.45
2018-06-28T05:37:27.182Z,99411.01
2018-06-28T05:39:56.567Z,99415.61
2018-06-28T05:42:25.694Z,99413.53
2018-06-28T05:44:54.781Z,99411.75
2018-06-28T05:47:23.907Z,99407.58
2018-06-28T05:49:53.132Z,99410.93
2018-06-28T05:52:22.297Z,99413.02
2018-06-28T05:54:51.527Z,99406.66
2018-06-28T05:57:21.534Z,99419.47
2018-06-28T05:59:50.698Z,99418.64
2018-06-28T06:02:19.882Z,99411.53
2018-06-28T06:04:49.198Z,99416.55
2018-06-28T06:07:18.281Z,99411.37
2018-06-28T06:09:47.330Z,99410.52
2018-06-28T06:12:16.530Z,99411.25
2018-06-28T06:14:45.623Z,99414.33
2018-06-28T06:17:14.746Z,99413.78
2018-06-28T06:19:43.920Z,99418.11
2018-06-28T06:22:13.208Z,99420.22
2018-06-28T06:24:42.414Z,99411.79
2018-06-28T06:27:11.673Z,99409.98
2018-06-28T06:29:41.008Z,99408.13
2018-06-28T06:32:10.630Z,99412.73
2018-06-28T06:34:39.895Z,99418.86
2018-06-28T06:37:09.686Z,99408.23
2018-06-28T06:39:39.059Z,99411.39
2018-06-28T06:42:08.334Z,99404.83
2018-06-28T06:44:38.261Z,99401.52
2018-06-28T06:47:07.470Z,99402.40
2018-06-28T06:49:36.543Z,99396.31
2018-06-28T06:52:05.741Z,99392.98
2018-06-28T06:54:35.013Z,99398.13
2018-06-28T06:57:04.246Z,99392.37
2018-06-28T06:59:33.411Z,99392.77
2018-06-28T07:02:03.166Z,99391.42
2018-06-28T07:04:33.441Z,99389.67
2018-06-28T07:07:02.502Z,99380.59
2018-06-28T07:09:31.708Z,99384.76
2018-06-28T07:12:00.880Z,99381.38
2018-06-28T07:14:30.061Z,99384.27
2018-06-28T07:16:59.174Z,99382.44
2018-06-28T07:19:28.738Z,99379.97
2018-06-28T07:21:57.989Z,99383.43
2018-06-28T07:24:27.778Z,99386.36
2018-06-28T07:26:57.102Z,99384.01
2018-06-28T07:29:26.515Z,99387.74
2018-06-28T07:31:55.661Z,99389.27
2018-06-28T07:34:24.901Z,99374.36
2018-06-28T07:36:54.467Z,99374.64
2018-06-28T07:39:23.792Z,99374.13
2018-06-28T07:41:53.199Z,99374.63
2018-06-28T07:44:22.347Z,99379.74
2018-06-28T07:46:51.592Z,99385.16
2018-06-28T07:49:20.798Z,99383.77
2018-06-28T07:51:50.028Z,99379.14
2018-06-28T07:54:19.215Z,99379.92
2018-06-28T07:56:48.643Z,99379.53
2018-06-28T07:59:17.738Z,99375.67
2018-06-28T08:01:46.899Z,99373.70
2018-06-28T08:04:16.084Z,99377.44
2018-06-28T08:06:45.353Z,99373.26
2018-06-28T08:09:14.479Z,99361.17
2018-06-28T08:11:43.777Z,99366.38
2018-06-28T08:14:13.733Z,99367.44
2018-06-28T08:16:43.015Z,99359.27
2018-06-28T08:19:12.146Z,99367.41
2018-06-28T08:21:41.425Z,99362.92
2018-06-28T08:24:10.590Z,99365.38
2018-06-28T08:26:39.785Z,99370.77
2018-06-28T08:29:08.972Z,99365.61
2018-06-28T08:31:38.078Z,99371.73
2018-06-28T08:34:07.175Z,99369.25
2018-06-28T08:36:36.364Z,99366.79
2018-06-28T08:39:08.643Z,99369.27
2018-06-28T08:41:38.362Z,99366.13
2018-06-28T08:44:07.642Z,99367.69
2018-06-28T08:46:37.279Z,99370.94
2018-06-28T08:49:07.160Z,99364.30
2018-06-28T08:51:36.194Z,99364.88
2018-06-28T08:54:05.582Z,99367.70
2018-06-28T08:56:34.757Z,99353.53
2018-06-28T08:59:04.062Z,99360.84
2018-06-28T09:01:33.296Z,99361.48
2018-06-28T09:04:02.622Z,99356.84
2018-06-28T09:06:31.906Z,99352.35
2018-06-28T09:09:01.209Z,99348.55
2018-06-28T09:11:31.481Z,99357.41
2018-06-28T09:14:00.685Z,99341.82
2018-06-28T09:16:29.867Z,99349.08
2018-06-28T09:18:58.984Z,99348.92
2018-06-28T09:21:28.297Z,99339.38
2018-06-28T09:23:57.587Z,99344.94
2018-06-28T09:26:27.218Z,99340.05
2018-06-28T09:28:56.569Z,99333.33
2018-06-28T09:31:26.028Z,99343.51
2018-06-28T09:33:55.597Z,99334.08
2018-06-28T09:36:24.897Z,99335.12
2018-06-28T09:38:54.301Z,99336.75
2018-06-28T09:41:23.538Z,99341.43
2018-06-28T09:43:52.714Z,99334.69
2018-06-28T09:46:22.071Z,99344.14
2018-06-28T09:48:51.413Z,99327.31
2018-06-28T09:51:21.741Z,99328.23
2018-06-28T09:53:51.268Z,99318.86
2018-06-28T09:56:21.590Z,99324.52
2018-06-28T09:58:50.837Z,99316.14
2018-06-28T10:01:20.174Z,99311.59
2018-06-28T10:03:49.342Z,99312.48
2018-06-28T10:06:18.614Z,99329.23
2018-06-28T10:08:47.854Z,99320.98
2018-06-28T10:11:17.245Z,99312.26
2018-06-28T10:13:46.438Z,99309.64
2018-06-28T10:16:15.594Z,99302.14
2018-06-28T10:18:44.864Z,99309.63
2018-06-28T10:21:14.152Z,99299.67
2018-06-28T10:23:43.338Z,99293.45
2018-06-28T10:26:12.491Z,99290.31
2018-06-28T10:28:41.655Z,99289.46
2018-06-28T10:31:10.869Z,99288.82
2018-06-28T10:33:40.215Z,99286.82
2018-06-28T10:36:09.504Z,99291.73
2018-06-28T10:38:38.751Z,99281.25
2018-06-28T10:41:08.102Z,99288.59
2018-06-28T10:43:37.656Z,99297.80
2018-06-28T10:46:06.923Z,99281.06
2018-06-28T10:48:36.173Z,99274.64
2018-06-28T10:51:05.322Z,99263.13
2018-06-28T10:53:35.514Z,99264.48
2018-06-28T10:56:05.981Z,99268.30
2018-06-28T10:58:35.308Z,99269.14
2018-06-28T11:01:08.063Z,99278.31
2018-06-28T11:03:37.171Z,99261.05
2018-06-28T11:06:06.870Z,99261.39
2018-06-28T11:08:36.140Z,99263.82
2018-06-28T11:11:05.402Z,99265.02
2018-06-28T11:13:34.590Z,99260.88
2018-06-28T11:16:03.752Z,99257.39
2018-06-28T11:18:32.982Z,99246.63
2018-06-28T11:21:02.213Z,99264.64
2018-06-28T11:23:31.444Z,99254.73
2018-06-28T11:26:00.643Z,99247.74
2018-06-28T11:28:29.984Z,99250.36
2018-06-28T11:30:59.178Z,99239.01
2018-06-28T11:33:28.338Z,99234.38
2018-06-28T11:35:57.507Z,99240.59
2018-06-28T11:38:26.691Z,99233.43
2018-06-28T11:40:55.816Z,99239.20
2018-06-28T11:43:25.035Z,99236.98
2018-06-28T11:45:54.227Z,99225.73
2018-06-28T11:48:23.371Z,99229.16
2018-06-28T11:50:53.133Z,99212.52
2018-06-28T11:53:22.229Z,99226.47
2018-06-28T11:55:51.525Z,99218.06
2018-06-28T11:58:20.782Z,99225.84
2018-06-28T12:00:50.033Z,99226.78
2018-06-28T12:03:19.152Z,99225.74
2018-06-28T12:05:48.501Z,99221.28
2018-06-28T12:08:17.736Z,99218.88
2018-06-28T12:10:46.970Z,99218.09
2018-06-28T12:13:16.504Z,99212.83
2018-06-28T12:15:45.594Z,99194.72
2018-06-28T12:18:14.830Z,99190.98
2018-06-28T12:20:44.008Z,99203.05
2018-06-28T12:23:13.085Z,99195.09
2018-06-28T12:25:42.817Z,99195.58
2018-06-28T12:28:12.009Z,99189.03
2018-06-28T12:30:41.164Z,99181.28
2018-06-28T12:33:10.254Z,99187.98
2018-06-28T12:35:39.388Z,99174.94
2018-06-28T12:38:08.566Z,99174.03
2018-06-28T12:40:37.732Z,99172.27
2018-06-28T12:43:06.833Z,99171.13
2018-06-28T12:45:35.952Z,99168.47
2018-06-28T12:48:06.657Z,99171.22
2018-06-28T12:50:35.850Z,99163.27
2018-06-28T12:53:07.009Z,99157.56
2018-06-28T12:56:17.453Z,99158.11
2018-06-28T12:58:46.706Z,99147.42
2018-06-28T13:01:15.860Z,99154.03
2018-06-28T13:03:45.171Z,99150.41
2018-06-28T13:06:14.288Z,99152.81
2018-06-28T13:08:43.735Z,99160.06
2018-06-28T13:11:12.942Z,99154.52
2018-06-28T13:13:42.773Z,99155.59
2018-06-28T13:16:13.974Z,99154.00
2018-06-28T13:18:44.009Z,99143.42
2018-06-28T13:21:13.205Z,99140.50
2018-06-28T13:23:42.362Z,99129.97
2018-06-28T13:26:13.066Z,99134.16
2018-06-28T13:28:42.873Z,99134.66
2018-06-28T13:31:11.889Z,99126.30
2018-06-28T13:33:41.123Z,99124.13
2018-06-28T13:36:10.550Z,99121.50
2018-06-28T13:38:39.666Z,99115.61
2018-06-28T13:41:09.362Z,99123.54
2018-06-28T13:43:38.394Z,99120.91
2018-06-28T13:46:07.475Z,99127.53
2018-06-28T13:48:36.664Z,99126.04
2018-06-28T13:51:05.785Z,99121.98
2018-06-28T13:53:34.993Z,99126.44
2018-06-28T13:56:04.257Z,99117.37
2018-06-28T13:58:33.364Z,99114.75
2018-06-28T14:01:02.595Z,99117.41
2018-06-28T14:03:31.826Z,99116.52
2018-06-28T14:06:01.135Z,99114.20
2018-06-28T14:08:30.275Z,99112.95
2018-06-28T14:10:59.437Z,99104.47
2018-06-28T14:13:28.493Z,99101.67
2018-06-28T14:15:57.561Z,99095.90
2018-06-28T14:18:26.689Z,99091.36
2018-06-28T14:20:55.830Z,99088.05
2018-06-28T14:23:24.917Z,99083.43
2018-06-28T14:25:54.133Z,99089.13
2018-06-28T14:28:23.175Z,99085.44
2018-06-28T14:30:52.453Z,99095.66
2018-06-28T14:33:21.754Z,99091.03
2018-06-28T14:35:51.142Z,99080.13
2018-06-28T14:38:20.306Z,99082.74
2018-06-28T14:40:49.440Z,99077.30
2018-06-28T14:43:18.523Z,99032.50
2018-06-28T14:45:48.622Z,99073.98
2018-06-28T14:48:17.718Z,99069.20
2018-06-28T14:50:46.932Z,99054.90
2018-06-28T14:53:16.258Z,99069.77
2018-06-28T14:55:45.977Z,99070.68
2018-06-28T14:58:15.082Z,99068.58
2018-06-28T15:00:44.224Z,99065.64
2018-06-28T15:03:13.401Z,99064.11
2018-06-28T15:05:43.530Z,99058.17
2018-06-28T15:08:12.637Z,99060.95
2018-06-28T15:10:41.736Z,99058.09
2018-06-28T15:13:10.999Z,99056.23
2018-06-28T15:15:40.122Z,99052.64
2018-06-28T15:18:09.315Z,99051.46
2018-06-28T15:20:38.397Z,99053.32
2018-06-28T15:23:08.290Z,99044.39
2018-06-28T15:25:37.472Z,99050.03
2018-06-28T15:28:06.569Z,99047.59
2018-06-28T15:30:36.658Z,99044.97
2018-06-28T15:33:05.871Z,99043.78
2018-06-28T15:35:34.898Z,99041.55
2018-06-28T15:38:04.126Z,99038.09
2018-06-28T15:40:33.258Z,99037.53
2018-06-28T15:43:02.339Z,99028.56
2018-06-28T15:45:31.515Z,99030.88
2018-06-28T15:48:00.729Z,99026.58
2018-06-28T15:50:29.851Z,99027.66
2018-06-28T15:52:58.986Z,99029.47
2018-06-28T15:55:28.196Z,99025.95
2018-06-28T15:57:57.610Z,99027.42
2018-06-28T16:00:26.922Z,99026.41
2018-06-28T16:02:56.107Z,99034.38
2018-06-28T16:05:25.198Z,99036.41
2018-06-28T16:07:54.314Z,99031.86
2018-06-28T16:10:23.575Z,99024.97
2018-06-28T16:12:52.762Z,99024.02
2018-06-28T16:15:21.895Z,99023.45
2018-06-28T16:17:50.977Z,99021.91
2018-06-28T16:20:20.186Z,99015.30
2018-06-28T16:22:49.387Z,99024.81
2018-06-28T16:25:18.484Z,99019.61
2018-06-28T16:27:47.590Z,99021.27
2018-06-28T16:30:16.804Z,99028.17
2018-06-28T16:32:46.128Z,99023.52
2018-06-28T16:35:15.209Z,99026.19
2018-06-28T16:37:44.871Z,99021.91
2018-06-28T16:40:14.042Z,99024.66
2018-06-28T16:42:43.221Z,99026.26
2018-06-28T16:45:12.354Z,99025.34
2018-06-28T16:47:41.635Z,99019.36
2018-06-28T16:50:10.927Z,99019.08
2018-06-28T16:52:40.181Z,99024.87
2018-06-28T16:55:09.244Z,99018.16
2018-06-28T16:57:38.448Z,99020.42
2018-06-28T17:00:07.842Z,99007.30
2018-06-28T17:02:37.062Z,99004.27
2018-06-28T17:05:06.203Z,98995.89
2018-06-28T17:07:35.333Z,98997.98
2018-06-28T17:10:05.988Z,99003.41
2018-06-28T17:12:35.657Z,98993.41
2018-06-28T17:15:04.904Z,98993.72
2018-06-28T17:17:34.406Z,98989.09
2018-06-28T17:20:03.601Z,98996.42
2018-06-28T17:22:32.793Z,98991.28
2018-06-28T17:25:01.921Z,98993.86
2018-06-28T17:27:31.076Z,98986.86
2018-06-28T17:30:00.825Z,98988.03
2018-06-28T17:32:30.023Z,98984.94
2018-06-28T17:34:59.137Z,98993.23
2018-06-28T17:37:28.351Z,98987.61
2018-06-28T17:39:57.706Z,98989.72
2018-06-28T17:42:26.870Z,98991.88
2018-06-28T17:44:56.132Z,98992.67
2018-06-28T17:47:25.257Z,98991.59
2018-06-28T17:49:54.395Z,98990.23
2018-06-28T17:52:23.593Z,98989.19
2018-06-28T17:54:53.018Z,98987.98
2018-06-28T17:57:22.182Z,98988.03
2018-06-28T17:59:51.544Z,98986.82
2018-06-28T18:02:20.731Z,98984.73
2018-06-28T18:04:50.069Z,98992.63
2018-06-28T18:07:19.121Z,98987.77
2018-06-28T18:09:48.380Z,98987.36
2018-06-28T18:12:17.572Z,98984.27
2018-06-28T18:14:46.865Z,98987.77
2018-06-28T18:17:16.377Z,98988.91
2018-06-28T18:19:45.595Z,98983.20
2018-06-28T18:22:14.812Z,98983.27
2018-06-28T18:24:44.476Z,98977.99
2018-06-28T18:27:13.828Z,98973.42
2018-06-28T18:29:43.006Z,98974.33
2018-06-28T18:32:12.173Z,98974.51
2018-06-28T18:34:41.805Z,98974.83
2018-06-28T18:37:10.921Z,98969.31
2018-06-28T18:39:40.130Z,98971.31
2018-06-28T18:42:09.999Z,98952.41
2018-06-28T18:44:39.090Z,98974.52
2018-06-28T18:47:08.245Z,98971.56
2018-06-28T18:49:37.346Z,98979.38
2018-06-28T18:52:06.633Z,98970.90
2018-06-28T18:54:35.765Z,98976.63
2018-06-28T18:57:08.162Z,98977.01
2018-06-28T18:59:37.317Z,98978.48
2018-06-28T19:02:06.990Z,98978.88
2018-06-28T19:04:36.059Z,98978.58
2018-06-28T19:07:05.698Z,98974.86
2018-06-28T19:09:40.180Z,98973.24
2018-06-28T19:12:09.339Z,98972.27
2018-06-28T19:14:43.956Z,98971.73
2018-06-28T19:17:13.097Z,98972.22
2018-06-28T19:19:42.200Z,98969.29
2018-06-28T19:23:16.854Z,98970.72
2018-06-28T19:25:46.458Z,98975.59
2018-06-28T19:28:15.572Z,98976.69
2018-06-28T19:30:50.084Z,98978.58
2018-06-28T19:33:20.063Z,98979.91
2018-06-28T19:35:49.198Z,98979.28
2018-06-28T19:38:18.298Z,98991.48
2018-06-28T19:40:52.886Z,99003.30
2018-06-28T19:43:22.127Z,99009.87
2018-06-28T19:45:51.281Z,99012.26
2018-06-28T19:48:20.725Z,99021.78
2018-06-28T19:50:55.076Z,99023.16
2018-06-28T19:53:24.247Z,99039.13
2018-06-28T19:55:53.416Z,99043.06
2018-06-28T19:58:22.588Z,99047.44
2018-06-28T20:00:57.227Z,99049.60
2018-06-28T20:03:31.436Z,99055.29
2018-06-28T20:06:00.579Z,99058.38
2018-06-28T20:08:29.733Z,99059.53
2018-06-28T20:10:59.481Z,99065.13
2018-06-28T20:13:34.030Z,99068.08
2018-06-28T20:16:08.477Z,99077.00
2018-06-28T20:18:42.734Z,99070.20
2018-06-28T20:21:12.013Z,99077.00
2018-06-28T20:23:41.155Z,99080.37
2018-06-28T20:26:16.611Z,99081.13
2018-06-28T20:28:50.902Z,99081.98
2018-06-28T20:31:25.295Z,99087.00
2018-06-28T20:33:59.734Z,99081.64
2018-06-28T20:36:28.842Z,99086.30
2018-06-28T20:38:57.957Z,99086.48
2018-06-28T20:41:27.046Z,99086.71
2018-06-28T20:43:56.175Z,99083.92
2018-06-28T20:46:25.250Z,99088.59
2018-06-28T20:48:54.308Z,99082.99
2018-06-28T20:51:23.370Z,99086.02
2018-06-28T20:53:52.444Z,99086.89
2018-06-28T20:56:21.875Z,99089.03
2018-06-28T20:58:50.952Z,99089.50
2018-06-28T21:01:20.060Z,99088.23
2018-06-28T21:03:49.135Z,99094.23
2018-06-28T21:06:18.237Z,99097.86
2018-06-28T21:08:47.294Z,99101.22
2018-06-28T21:11:16.357Z,99117.99
2018-06-28T21:13:45.421Z,99121.27
2018-06-28T21:16:14.558Z,99116.34
2018-06-28T21:18:43.668Z,99084.67
2018-06-28T21:21:12.779Z,99113.98
2018-06-28T21:23:41.801Z,99112.81
2018-06-28T21:26:10.907Z,99109.64
2018-06-28T21:28:39.944Z,99110.64
2018-06-28T21:31:09.639Z,99109.66
2018-06-28T21:33:38.732Z,99108.19
2018-06-28T21:36:07.810Z,99101.75
2018-06-28T21:38:36.845Z,99112.73
2018-06-28T21:41:06.577Z,99113.96
2018-06-28T21:43:35.705Z,99109.55
2018-06-28T21:46:05.028Z,99113.25
2018-06-28T21:48:34.094Z,99107.43
2018-06-28T21:51:03.288Z,99101.21
2018-06-28T21:53:32.382Z,99096.73
2018-06-28T21:56:01.496Z,99096.20
2018-06-28T21:58:30.946Z,99102.45
2018-06-28T22:01:00.407Z,99099.86
2018-06-28T22:03:29.521Z,99100.39
2018-06-28T22:05:58.623Z,99097.26
2018-06-28T22:08:27.754Z,99096.78
2018-06-28T22:10:56.838Z,99091.78
2018-06-28T22:13:25.921Z,99086.67
2018-06-28T22:15:55.015Z,99084.21
2018-06-28T22:18:24.171Z,99082.98
2018-06-28T22:20:53.262Z,99078.47
2018-06-28T22:23:22.350Z,99083.00
2018-06-28T22:25:51.511Z,99080.42
2018-06-28T22:28:20.594Z,99076.28
2018-06-28T22:30:49.709Z,99070.93
2018-06-28T22:33:18.810Z,99067.64
2018-06-28T22:35:47.959Z,99066.88
2018-06-28T22:38:17.024Z,99068.67
2018-06-28T22:40:46.125Z,99057.55
2018-06-28T22:43:15.224Z,99060.05
2018-06-28T22:45:44.333Z,99064.58
2018-06-28T22:48:13.381Z,99056.52
2018-06-28T22:50:42.622Z,99058.30
2018-06-28T22:53:11.665Z,99062.00
2018-06-28T22:55:40.771Z,99062.13
2018-06-28T22:58:09.859Z,99058.75
2018-06-28T23:00:38.985Z,99059.30
2018-06-28T23:03:08.100Z,99063.27
2018-06-28T23:05:37.172Z,99052.95
2018-06-28T23:08:06.268Z,99058.17
2018-06-28T23:10:35.322Z,99062.16
2018-06-28T23:13:04.390Z,99062.00
2018-06-28T23:15:33.486Z,99067.31
2018-06-28T23:18:02.583Z,99063.03
2018-06-28T23:20:31.687Z,99066.75
2018-06-28T23:23:00.744Z,99064.14
2018-06-28T23:25:29.788Z,99068.10
2018-06-28T23:27:58.842Z,99063.50
2018-06-28T23:30:27.914Z,99062.70
2018-06-28T23:32:57.000Z,99053.73
2018-06-28T23:35:26.067Z,99054.27
2018-06-28T23:37:55.182Z,99044.16
2018-06-28T23:40:24.286Z,99039.48
2018-06-28T23:42:53.399Z,99041.09
2018-06-28T23:45:22.771Z,99044.05
2018-06-28T23:47:51.858Z,99042.48
2018-06-28T23:50:20.941Z,99047.41
2018-06-28T23:52:50.081Z,99044.00
2018-06-28T23:55:19.275Z,99038.27
2018-06-28T23:57:49.419Z,99044.66
